Time;durP1;ratioP1;P1;durP2;ratioP2;P2;SDS_P1;SDS_P2;PMS_P1;PMS_P2;Temp;Humidity;BMP_temperature;BMP_pressure;BME280_temperature;BME280_humidity;BME280_pressure;Samples;Min_cycle;Max_cycle;Signal;HPM_P1;HPM_P2
2022/12/12 00:01:47;;;;;;;;;;;0.50;99.90;;;;;;5131387;27;20263;-66
2022/12/12 00:04:12;;;;;;;;;;;0.60;99.90;;;;;;5107315;27;19934;-64
2022/12/12 00:06:38;;;;;;;;;;;0.50;99.90;;;;;;5120698;27;19924;-64
2022/12/12 00:09:04;;;;;;;;;;;0.50;99.90;;;;;;5106576;27;20275;-64
2022/12/12 00:11:29;;;;;;;;;;;0.50;99.90;;;;;;5052283;28;19941;-64
2022/12/12 00:13:55;;;;;;;;;;;0.60;99.90;;;;;;4949302;28;20038;-64
2022/12/12 00:16:21;;;;;;;;;;;0.50;99.90;;;;;;4782792;29;19935;-64
2022/12/12 00:18:47;;;;;;;;;;;0.50;99.90;;;;;;4675020;30;20452;-64
2022/12/12 00:21:14;;;;;;;;;;;0.50;99.90;;;;;;4520612;31;19936;-63
2022/12/12 00:26:18;;;;;;;;;;;0.50;99.90;;;;;;5176482;27;19923;-64
2022/12/12 00:28:44;;;;;;;;;;;0.60;99.90;;;;;;5134594;27;19923;-64
2022/12/12 00:31:10;;;;;;;;;;;0.50;99.90;;;;;;5107603;27;19977;-64
2022/12/12 00:33:35;;;;;;;;;;;0.50;99.90;;;;;;5092355;28;19935;-64
2022/12/12 00:36:01;;;;;;;;;;;0.50;99.90;;;;;;5032459;28;19974;-64
2022/12/12 00:38:26;;;;;;;;;;;0.50;99.90;;;;;;5028997;28;19933;-64
2022/12/12 00:40:56;;;;;;;;;;;0.50;99.90;;;;;;4998007;28;19933;-64
2022/12/12 00:43:22;;;;;;;;;;;0.60;99.90;;;;;;4923551;28;19932;-64
2022/12/12 00:45:47;;;;;;;;;;;0.50;99.90;;;;;;4866737;29;20007;-64
2022/12/12 00:48:13;;;;;;;;;;;0.60;99.90;;;;;;4762524;29;19931;-64
2022/12/12 00:53:17;;;;;;;;;;;0.50;99.90;;;;;;5184323;27;20296;-64
2022/12/12 00:55:42;;;;;;;;;;;0.50;99.90;;;;;;5161798;27;19923;-64
2022/12/12 00:58:08;;;;;;;;;;;0.50;99.90;;;;;;5143570;27;19959;-64
2022/12/12 01:00:34;;;;;;;;;;;0.50;99.90;;;;;;5156856;27;19995;-64
2022/12/12 01:03:00;;;;;;;;;;;0.50;99.90;;;;;;5131704;27;19935;-64
2022/12/12 01:05:26;;;;;;;;;;;0.50;99.90;;;;;;5098879;27;20073;-64
2022/12/12 01:07:51;;;;;;;;;;;0.50;99.90;;;;;;5048779;28;20060;-64
2022/12/12 01:10:17;;;;;;;;;;;0.50;99.90;;;;;;4988803;28;20373;-63
2022/12/12 01:12:44;;;;;;;;;;;0.50;99.90;;;;;;4854734;28;19938;-64
2022/12/12 01:15:10;;;;;;;;;;;0.50;99.90;;;;;;4749232;29;19936;-64
2022/12/12 01:17:47;;;;;;;;;;;0.40;99.90;;;;;;5173915;27;20308;-64
2022/12/12 01:20:18;;;;;;;;;;;0.50;99.90;;;;;;5168935;27;19923;-64
2022/12/12 01:22:43;;;;;;;;;;;0.50;99.90;;;;;;5130796;27;19934;-64
2022/12/12 01:25:10;;;;;;;;;;;0.50;99.90;;;;;;5110533;27;19932;-64
2022/12/12 01:27:35;;;;;;;;;;;0.50;99.90;;;;;;5106662;27;19978;-64
2022/12/12 01:30:01;;;;;;;;;;;0.40;99.90;;;;;;5112577;27;20065;-64
2022/12/12 01:32:29;;;;;;;;;;;0.40;99.90;;;;;;5041845;28;20071;-64
2022/12/12 01:34:55;;;;;;;;;;;0.50;99.90;;;;;;4965696;28;19929;-64
2022/12/12 01:37:20;;;;;;;;;;;0.50;99.90;;;;;;4935966;28;20121;-64
2022/12/12 01:39:46;;;;;;;;;;;0.50;99.90;;;;;;4827842;29;20141;-64
2022/12/12 01:44:49;;;;;;;;;;;0.50;99.90;;;;;;5168242;27;19927;-63
2022/12/12 01:47:16;;;;;;;;;;;0.60;99.90;;;;;;5110542;27;20057;-64
2022/12/12 01:49:43;;;;;;;;;;;0.50;99.90;;;;;;5098794;27;19923;-64
2022/12/12 01:52:11;;;;;;;;;;;0.50;99.90;;;;;;5088085;27;19924;-64
2022/12/12 01:54:42;;;;;;;;;;;0.50;99.90;;;;;;5072404;28;19933;-64
2022/12/12 01:57:10;;;;;;;;;;;0.50;99.90;;;;;;5031423;28;19929;-64
2022/12/12 01:59:36;;;;;;;;;;;0.50;99.90;;;;;;4943259;28;19934;-64
2022/12/12 02:02:03;;;;;;;;;;;0.50;99.90;;;;;;4838785;29;20238;-64
2022/12/12 02:04:28;;;;;;;;;;;0.50;99.90;;;;;;4793349;29;19940;-64
2022/12/12 02:06:55;;;;;;;;;;;0.50;99.90;;;;;;4737350;29;19969;-63
2022/12/12 02:09:33;;;;;;;;;;;0.50;99.90;;;;;;5180307;27;19926;-64
2022/12/12 02:11:58;;;;;;;;;;;0.60;99.90;;;;;;5112735;27;19924;-63
2022/12/12 02:14:36;;;;;;;;;;;0.50;99.90;;;;;;5123655;27;20189;-64
2022/12/12 02:17:20;;;;;;;;;;;0.50;99.90;;;;;;5142862;27;20538;-64
2022/12/12 02:20:04;;;;;;;;;;;0.50;99.90;;;;;;5067915;27;19925;-64
2022/12/12 02:22:36;;;;;;;;;;;0.60;99.90;;;;;;5037070;28;19925;-63
2022/12/12 02:25:20;;;;;;;;;;;0.60;99.90;;;;;;4971370;28;19929;-64
2022/12/12 02:27:49;;;;;;;;;;;0.50;99.90;;;;;;4894492;28;19936;-63
2022/12/12 02:30:42;;;;;;;;;;;0.50;99.90;;;;;;5184185;27;19923;-63
2022/12/12 02:33:20;;;;;;;;;;;0.50;99.90;;;;;;5135564;27;20297;-63
2022/12/12 02:35:48;;;;;;;;;;;0.50;99.90;;;;;;5097215;27;19984;-64
2022/12/12 02:38:17;;;;;;;;;;;0.50;99.90;;;;;;5065162;28;20234;-64
2022/12/12 02:40:42;;;;;;;;;;;0.50;99.90;;;;;;5057224;28;19926;-64
2022/12/12 02:43:11;;;;;;;;;;;0.50;99.90;;;;;;5017109;28;19948;-63
2022/12/12 02:45:36;;;;;;;;;;;0.50;99.90;;;;;;4971180;28;20373;-63
2022/12/12 02:48:13;;;;;;;;;;;0.50;99.90;;;;;;4960643;28;19936;-64
2022/12/12 02:50:39;;;;;;;;;;;0.60;99.90;;;;;;4931690;28;21303;-63
2022/12/12 02:53:05;;;;;;;;;;;0.40;99.90;;;;;;4817822;29;19925;-63
2022/12/12 02:55:38;;;;;;;;;;;0.50;99.90;;;;;;5175087;27;19922;-64
2022/12/12 02:58:04;;;;;;;;;;;0.50;99.90;;;;;;5131001;27;20283;-63
2022/12/12 03:00:33;;;;;;;;;;;0.50;99.90;;;;;;5126122;27;20350;-64
2022/12/12 03:08:33;;;;;;;;;;;0.50;99.90;;;;;;5049278;28;20391;-63
2022/12/12 03:11:04;;;;;;;;;;;0.50;99.90;;;;;;5001132;28;19930;-63
2022/12/12 03:13:39;;;;;;;;;;;0.50;99.90;;;;;;5028489;28;19926;-63
2022/12/12 03:16:12;;;;;;;;;;;0.50;99.90;;;;;;4916788;28;19928;-64
2022/12/12 03:18:44;;;;;;;;;;;0.50;99.90;;;;;;4811424;29;19926;-63
2022/12/12 03:21:22;;;;;;;;;;;0.40;99.90;;;;;;5173285;27;19927;-64
2022/12/12 03:23:49;;;;;;;;;;;0.50;99.90;;;;;;5102886;27;20289;-63
2022/12/12 03:26:22;;;;;;;;;;;0.50;99.90;;;;;;5118444;27;20092;-63
2022/12/12 03:28:57;;;;;;;;;;;0.50;99.90;;;;;;5123279;27;19932;-63
2022/12/12 03:31:25;;;;;;;;;;;0.50;99.90;;;;;;5112243;27;19925;-64
2022/12/12 03:33:55;;;;;;;;;;;0.50;99.90;;;;;;5059205;28;19932;-63
2022/12/12 03:36:26;;;;;;;;;;;0.40;99.90;;;;;;5041072;28;20021;-63
2022/12/12 03:38:56;;;;;;;;;;;0.50;99.90;;;;;;4928178;28;19931;-64
2022/12/12 03:41:23;;;;;;;;;;;0.40;99.90;;;;;;4847352;29;19933;-63
2022/12/12 03:43:53;;;;;;;;;;;0.50;99.90;;;;;;4791478;29;20395;-63
2022/12/12 03:46:29;;;;;;;;;;;0.50;99.90;;;;;;5184146;27;20017;-63
2022/12/12 03:49:06;;;;;;;;;;;0.50;99.90;;;;;;5118672;27;20076;-63
2022/12/12 03:51:35;;;;;;;;;;;0.50;99.90;;;;;;5123316;27;19934;-63
2022/12/12 03:54:15;;;;;;;;;;;0.50;99.90;;;;;;5146551;27;19927;-63
2022/12/12 03:56:44;;;;;;;;;;;0.50;99.90;;;;;;5107109;27;19966;-63
2022/12/12 03:59:13;;;;;;;;;;;0.50;99.90;;;;;;5021903;28;19941;-63
2022/12/12 04:01:59;;;;;;;;;;;0.50;99.90;;;;;;4983263;28;19929;-63
2022/12/12 04:04:37;;;;;;;;;;;0.50;99.90;;;;;;4937528;28;19932;-63
2022/12/12 04:07:09;;;;;;;;;;;0.50;99.90;;;;;;4875705;29;19955;-63
2022/12/12 04:15:39;;;;;;;;;;;0.50;99.90;;;;;;5147636;27;19932;-63
2022/12/12 04:18:11;;;;;;;;;;;0.50;99.90;;;;;;5109180;28;19935;-63
2022/12/12 04:23:46;;;;;;;;;;;0.50;99.90;;;;;;5036435;28;19940;-63
2022/12/12 04:26:40;;;;;;;;;;;0.40;99.90;;;;;;4950080;28;19926;-63
2022/12/12 04:29:05;;;;;;;;;;;0.40;99.90;;;;;;4855540;29;20377;-63
2022/12/12 04:31:33;;;;;;;;;;;0.50;99.90;;;;;;4797261;29;20036;-63
2022/12/12 04:34:01;;;;;;;;;;;0.40;99.90;;;;;;4772553;29;20491;-63
2022/12/12 04:39:15;;;;;;;;;;;0.50;99.90;;;;;;5173104;27;19927;-63
2022/12/12 04:41:42;;;;;;;;;;;0.40;99.90;;;;;;5140353;27;19941;-63
2022/12/12 04:44:09;;;;;;;;;;;0.40;99.90;;;;;;5152353;27;19938;-63
2022/12/12 04:46:36;;;;;;;;;;;0.40;99.90;;;;;;5116797;27;19931;-64
2022/12/12 04:49:06;;;;;;;;;;;0.40;99.90;;;;;;5071298;28;19925;-64
2022/12/12 04:51:35;;;;;;;;;;;0.40;99.90;;;;;;5009104;28;19933;-63
2022/12/12 04:54:08;;;;;;;;;;;0.40;99.90;;;;;;4975461;28;19930;-63
2022/12/12 04:56:34;;;;;;;;;;;0.40;99.90;;;;;;4930997;28;20383;-63
2022/12/12 04:59:01;;;;;;;;;;;0.40;99.90;;;;;;4904669;28;19928;-63
2022/12/12 05:01:33;;;;;;;;;;;0.40;99.90;;;;;;4791386;29;19995;-63
2022/12/12 05:04:21;;;;;;;;;;;0.40;99.90;;;;;;5177293;27;19926;-63
2022/12/12 05:06:49;;;;;;;;;;;0.40;99.90;;;;;;5118196;27;20276;-63
2022/12/12 05:09:16;;;;;;;;;;;0.40;99.90;;;;;;5080976;28;19928;-63
2022/12/12 05:11:41;;;;;;;;;;;0.40;99.90;;;;;;5056044;28;19925;-63
2022/12/12 05:14:08;;;;;;;;;;;0.40;99.90;;;;;;5027079;28;19936;-63
2022/12/12 05:16:42;;;;;;;;;;;0.40;99.90;;;;;;4988022;28;19930;-63
2022/12/12 05:19:08;;;;;;;;;;;0.40;99.90;;;;;;4905559;28;19939;-63
2022/12/12 05:21:33;;;;;;;;;;;0.40;99.90;;;;;;4817785;29;19933;-63
2022/12/12 05:23:59;;;;;;;;;;;0.40;99.90;;;;;;4761414;29;19937;-63
2022/12/12 05:26:26;;;;;;;;;;;0.40;99.90;;;;;;4688180;30;19928;-63
2022/12/12 05:31:28;;;;;;;;;;;0.40;99.90;;;;;;5186916;27;19931;-63
2022/12/12 05:33:54;;;;;;;;;;;0.40;99.90;;;;;;5148570;27;19923;-63
2022/12/12 05:36:20;;;;;;;;;;;0.40;99.90;;;;;;5147784;27;19934;-63
2022/12/12 05:38:45;;;;;;;;;;;0.30;99.90;;;;;;5114690;27;20286;-63
2022/12/12 05:41:11;;;;;;;;;;;0.40;99.90;;;;;;5107942;27;19928;-63
2022/12/12 05:43:37;;;;;;;;;;;0.40;99.90;;;;;;5089400;28;19929;-63
2022/12/12 05:46:04;;;;;;;;;;;0.40;99.90;;;;;;5000981;28;19945;-63
2022/12/12 05:48:29;;;;;;;;;;;0.40;99.90;;;;;;4915934;28;19935;-63
2022/12/12 05:50:56;;;;;;;;;;;0.30;99.90;;;;;;4864416;29;20314;-63
2022/12/12 05:53:21;;;;;;;;;;;0.30;99.90;;;;;;4848260;29;19928;-64
2022/12/12 05:58:25;;;;;;;;;;;0.30;99.90;;;;;;5183343;27;19923;-63
2022/12/12 06:00:51;;;;;;;;;;;0.30;99.90;;;;;;5116890;27;20263;-63
2022/12/12 06:03:16;;;;;;;;;;;0.30;99.90;;;;;;5124628;27;20234;-63
2022/12/12 06:05:42;;;;;;;;;;;0.30;99.90;;;;;;5148491;27;19923;-63
2022/12/12 06:08:07;;;;;;;;;;;0.40;99.90;;;;;;5116268;27;19935;-63
2022/12/12 06:10:33;;;;;;;;;;;0.30;99.90;;;;;;5085786;28;19929;-63
2022/12/12 06:12:58;;;;;;;;;;;0.40;99.90;;;;;;5040616;28;20208;-63
2022/12/12 06:15:23;;;;;;;;;;;0.30;99.90;;;;;;4921764;28;19927;-63
2022/12/12 06:17:50;;;;;;;;;;;0.40;99.90;;;;;;4870989;29;20127;-63
2022/12/12 06:20:16;;;;;;;;;;;0.40;99.90;;;;;;4833356;29;20019;-63
2022/12/12 06:25:21;;;;;;;;;;;0.40;99.90;;;;;;5171552;27;19926;-63
2022/12/12 06:27:47;;;;;;;;;;;0.40;99.90;;;;;;5145971;27;19924;-63
2022/12/12 06:30:13;;;;;;;;;;;0.30;99.90;;;;;;5120068;27;19932;-63
2022/12/12 06:32:38;;;;;;;;;;;0.30;99.90;;;;;;5098309;27;20019;-63
2022/12/12 06:35:04;;;;;;;;;;;0.30;99.90;;;;;;5084220;28;20023;-63
2022/12/12 06:37:29;;;;;;;;;;;0.30;99.90;;;;;;5028735;28;19940;-63
2022/12/12 06:39:55;;;;;;;;;;;0.30;99.90;;;;;;4999152;28;19930;-63
2022/12/12 06:42:20;;;;;;;;;;;0.30;99.90;;;;;;4938599;28;20318;-63
2022/12/12 06:44:45;;;;;;;;;;;0.30;99.90;;;;;;4880963;29;19936;-63
2022/12/12 06:47:11;;;;;;;;;;;0.30;99.90;;;;;;4819573;29;20388;-64
2022/12/12 06:52:32;;;;;;;;;;;0.30;99.90;;;;;;5170343;27;19930;-63
2022/12/12 06:54:58;;;;;;;;;;;0.30;99.90;;;;;;5147007;27;19931;-63
2022/12/12 06:57:23;;;;;;;;;;;0.20;99.90;;;;;;5115191;27;19964;-63
2022/12/12 06:59:50;;;;;;;;;;;0.30;99.90;;;;;;5087059;28;19931;-63
2022/12/12 07:02:15;;;;;;;;;;;0.30;99.90;;;;;;5067847;28;20287;-63
2022/12/12 07:04:40;;;;;;;;;;;0.30;99.90;;;;;;5001073;28;19925;-63
2022/12/12 07:07:06;;;;;;;;;;;0.30;99.90;;;;;;4986396;28;19934;-63
2022/12/12 07:09:31;;;;;;;;;;;0.30;99.90;;;;;;4922865;28;20473;-64
2022/12/12 07:11:57;;;;;;;;;;;0.30;99.90;;;;;;4867737;29;19997;-63
2022/12/12 07:14:22;;;;;;;;;;;0.30;99.90;;;;;;4793155;29;19923;-63
2022/12/12 07:17:00;;;;;;;;;;;0.30;99.90;;;;;;5172449;27;19927;-63
2022/12/12 07:19:25;;;;;;;;;;;0.30;99.90;;;;;;5141436;27;19923;-63
2022/12/12 07:21:51;;;;;;;;;;;0.30;99.90;;;;;;5135993;27;19924;-63
2022/12/12 07:24:16;;;;;;;;;;;0.30;99.90;;;;;;5106849;27;19939;-63
2022/12/12 07:26:42;;;;;;;;;;;0.30;99.90;;;;;;5054615;28;20019;-63
2022/12/12 07:29:07;;;;;;;;;;;0.30;99.90;;;;;;5031643;28;20279;-63
2022/12/12 07:31:33;;;;;;;;;;;0.30;99.90;;;;;;5094622;28;19931;-63
2022/12/12 07:33:59;;;;;;;;;;;0.30;99.90;;;;;;5085896;28;20380;-63
2022/12/12 07:36:24;;;;;;;;;;;0.30;99.90;;;;;;5067597;28;19939;-63
2022/12/12 07:38:50;;;;;;;;;;;0.30;99.90;;;;;;4975876;28;19948;-64
2022/12/12 07:43:52;;;;;;;;;;;0.20;99.90;;;;;;5191641;27;19926;-63
2022/12/12 07:46:24;;;;;;;;;;;0.30;99.90;;;;;;5176931;27;20250;-63
2022/12/12 07:48:50;;;;;;;;;;;0.30;99.90;;;;;;5161811;27;19975;-63
2022/12/12 07:51:16;;;;;;;;;;;0.30;99.90;;;;;;5140890;27;19931;-63
2022/12/12 07:53:42;;;;;;;;;;;0.30;99.90;;;;;;5124469;27;19932;-63
2022/12/12 07:56:08;;;;;;;;;;;0.30;99.90;;;;;;5053342;28;20355;-63
2022/12/12 07:58:34;;;;;;;;;;;0.20;99.90;;;;;;5031440;28;19931;-63
2022/12/12 08:01:00;;;;;;;;;;;0.30;99.90;;;;;;4918220;28;19932;-63
2022/12/12 08:03:25;;;;;;;;;;;0.40;99.90;;;;;;4768420;29;19934;-63
2022/12/12 08:05:51;;;;;;;;;;;0.30;99.90;;;;;;4663196;30;19929;-63
2022/12/12 08:08:24;;;;;;;;;;;0.40;99.90;;;;;;5189098;27;19931;-63
2022/12/12 08:10:49;;;;;;;;;;;0.40;99.90;;;;;;5116996;27;19923;-63
2022/12/12 08:13:15;;;;;;;;;;;0.40;99.90;;;;;;5114426;27;19932;-63
2022/12/12 08:15:41;;;;;;;;;;;0.30;99.90;;;;;;5156484;27;19924;-63
2022/12/12 08:18:06;;;;;;;;;;;0.40;99.90;;;;;;5118341;27;21170;-63
2022/12/12 08:20:32;;;;;;;;;;;0.30;99.90;;;;;;5079541;28;22684;-63
2022/12/12 08:22:58;;;;;;;;;;;0.40;99.90;;;;;;5035820;28;19929;-63
2022/12/12 08:25:23;;;;;;;;;;;0.50;99.90;;;;;;4945198;28;19979;-63
2022/12/12 08:27:49;;;;;;;;;;;0.40;99.90;;;;;;4841742;29;19933;-63
2022/12/12 08:30:15;;;;;;;;;;;0.50;99.90;;;;;;4794018;29;20286;-63
2022/12/12 08:35:20;;;;;;;;;;;0.50;99.90;;;;;;5181117;27;19926;-63
2022/12/12 08:37:46;;;;;;;;;;;0.60;99.90;;;;;;5157972;27;20262;-63
2022/12/12 08:40:11;;;;;;;;;;;0.50;99.90;;;;;;5144281;27;19923;-63
2022/12/12 08:42:37;;;;;;;;;;;0.50;99.90;;;;;;5103857;27;20019;-63
2022/12/12 08:45:02;;;;;;;;;;;0.50;99.90;;;;;;5078865;27;19932;-63
2022/12/12 08:47:28;;;;;;;;;;;0.60;99.90;;;;;;5035211;28;20439;-63
2022/12/12 08:49:53;;;;;;;;;;;0.60;99.90;;;;;;4939162;28;19995;-63
2022/12/12 08:52:19;;;;;;;;;;;0.60;99.90;;;;;;4943894;28;19925;-63
2022/12/12 08:54:44;;;;;;;;;;;0.70;99.90;;;;;;4950944;28;19988;-63
2022/12/12 08:57:10;;;;;;;;;;;0.70;99.90;;;;;;4850969;29;20381;-63
2022/12/12 08:59:48;;;;;;;;;;;0.80;99.90;;;;;;5187630;27;19927;-63
2022/12/12 09:02:14;;;;;;;;;;;0.70;99.90;;;;;;5166083;27;19923;-63
2022/12/12 09:04:39;;;;;;;;;;;0.80;99.90;;;;;;5177227;27;19923;-63
2022/12/12 09:07:05;;;;;;;;;;;0.80;99.90;;;;;;5145627;27;19923;-63
2022/12/12 09:09:31;;;;;;;;;;;0.90;99.90;;;;;;5094535;27;19924;-63
2022/12/12 09:11:57;;;;;;;;;;;0.90;99.90;;;;;;5017093;28;19930;-63
2022/12/12 09:14:22;;;;;;;;;;;0.80;99.90;;;;;;4959495;28;19926;-63
2022/12/12 09:16:48;;;;;;;;;;;0.90;99.90;;;;;;4922850;28;19935;-63
2022/12/12 09:19:14;;;;;;;;;;;0.90;99.90;;;;;;4923119;28;19983;-63
2022/12/12 09:21:39;;;;;;;;;;;1.00;99.90;;;;;;4841435;29;19927;-63
2022/12/12 09:26:43;;;;;;;;;;;1.00;99.90;;;;;;5192996;27;20281;-63
2022/12/12 09:29:09;;;;;;;;;;;1.00;99.90;;;;;;5146045;27;19923;-63
2022/12/12 09:31:34;;;;;;;;;;;1.10;99.90;;;;;;5158862;27;19927;-63
2022/12/12 09:34:00;;;;;;;;;;;1.10;99.90;;;;;;5118580;27;19970;-63
2022/12/12 09:36:25;;;;;;;;;;;1.20;99.90;;;;;;5092545;28;19924;-63
2022/12/12 09:38:51;;;;;;;;;;;1.10;99.90;;;;;;5024910;28;19929;-63
2022/12/12 09:41:22;;;;;;;;;;;1.20;99.90;;;;;;4997151;28;19930;-63
2022/12/12 09:43:54;;;;;;;;;;;1.20;99.90;;;;;;4936871;28;19927;-64
2022/12/12 09:46:24;;;;;;;;;;;1.20;99.90;;;;;;4882545;29;19998;-63
2022/12/12 09:48:50;;;;;;;;;;;1.30;99.90;;;;;;4841436;29;19924;-63
2022/12/12 09:51:23;;;;;;;;;;;1.30;99.90;;;;;;5200427;27;19927;-63
2022/12/12 09:53:50;;;;;;;;;;;1.30;99.90;;;;;;5153827;27;19927;-63
2022/12/12 09:56:20;;;;;;;;;;;1.30;99.90;;;;;;5147575;27;19923;-63
2022/12/12 09:58:50;;;;;;;;;;;1.30;99.90;;;;;;5143660;27;19923;-63
2022/12/12 10:01:21;;;;;;;;;;;1.40;99.90;;;;;;5103141;28;20380;-63
2022/12/12 10:04:06;;;;;;;;;;;1.40;99.90;;;;;;5087471;28;20061;-63
2022/12/12 10:06:40;;;;;;;;;;;1.50;99.90;;;;;;5060297;28;20474;-63
2022/12/12 10:09:09;;;;;;;;;;;1.50;99.90;;;;;;5017670;28;20424;-63
2022/12/12 10:11:53;;;;;;;;;;;1.50;99.90;;;;;;4916492;28;19969;-63
2022/12/12 10:14:28;;;;;;;;;;;1.50;99.90;;;;;;4857207;29;20388;-63
2022/12/12 10:17:10;;;;;;;;;;;1.50;99.90;;;;;;5196647;27;19923;-63
2022/12/12 10:19:44;;;;;;;;;;;1.60;99.90;;;;;;5139820;27;19930;-64
2022/12/12 10:22:22;;;;;;;;;;;1.60;99.90;;;;;;5147477;27;20025;-63
2022/12/12 10:24:52;;;;;;;;;;;1.60;99.90;;;;;;5140606;27;19923;-63
2022/12/12 10:27:17;;;;;;;;;;;1.70;99.90;;;;;;5143464;27;19934;-63
2022/12/12 10:29:45;;;;;;;;;;;1.70;99.90;;;;;;5070426;28;19925;-63
2022/12/12 10:32:17;;;;;;;;;;;1.70;99.90;;;;;;4980415;28;20279;-63
2022/12/12 10:35:05;;;;;;;;;;;1.70;99.90;;;;;;4945926;28;20037;-63
2022/12/12 10:37:56;;;;;;;;;;;1.80;99.90;;;;;;4800056;29;19930;-63
2022/12/12 10:43:57;;;;;;;;;;;1.80;99.90;;;;;;5200913;27;20292;-63
2022/12/12 10:46:25;;;;;;;;;;;1.90;99.90;;;;;;5156345;27;20010;-63
2022/12/12 10:48:51;;;;;;;;;;;1.90;99.90;;;;;;5126966;27;19971;-63
2022/12/12 10:51:18;;;;;;;;;;;1.90;99.90;;;;;;5139587;27;19994;-63
2022/12/12 10:53:44;;;;;;;;;;;2.00;99.90;;;;;;5084074;28;20015;-63
2022/12/12 10:56:23;;;;;;;;;;;2.00;99.90;;;;;;5078104;28;20018;-64
2022/12/12 10:59:00;;;;;;;;;;;2.00;99.90;;;;;;5064603;28;20003;-63
2022/12/12 11:01:25;;;;;;;;;;;2.00;99.90;;;;;;4897350;29;19936;-63
2022/12/12 11:03:52;;;;;;;;;;;2.10;99.90;;;;;;4839161;29;20017;-63
2022/12/12 11:06:56;;;;;;;;;;;2.10;99.90;;;;;;4712070;29;19953;-63
2022/12/12 11:09:36;;;;;;;;;;;2.10;99.90;;;;;;5197150;27;20272;-63
2022/12/12 11:12:03;;;;;;;;;;;2.20;99.90;;;;;;5163568;27;19945;-63
2022/12/12 11:14:32;;;;;;;;;;;2.20;99.90;;;;;;5160832;27;19923;-63
2022/12/12 11:16:57;;;;;;;;;;;2.20;99.90;;;;;;5127479;27;19924;-64
2022/12/12 11:19:24;;;;;;;;;;;2.20;99.90;;;;;;5092010;28;20441;-63
2022/12/12 11:21:51;;;;;;;;;;;2.20;99.90;;;;;;5036001;28;20023;-63
2022/12/12 11:24:17;;;;;;;;;;;2.20;99.90;;;;;;5009708;28;19925;-63
2022/12/12 11:26:45;;;;;;;;;;;2.20;99.90;;;;;;4958310;28;19934;-63
2022/12/12 11:29:37;;;;;;;;;;;2.30;99.90;;;;;;4915294;29;19935;-63
2022/12/12 11:32:03;;;;;;;;;;;2.30;99.90;;;;;;4755170;29;20640;-63
2022/12/12 11:34:43;;;;;;;;;;;2.30;99.90;;;;;;5186458;27;19923;-63
2022/12/12 11:37:13;;;;;;;;;;;2.30;99.90;;;;;;5122780;27;20094;-63
2022/12/12 11:39:41;;;;;;;;;;;2.30;99.90;;;;;;5106217;27;20011;-63
2022/12/12 11:42:13;;;;;;;;;;;2.30;99.90;;;;;;5157625;27;19933;-63
2022/12/12 11:44:39;;;;;;;;;;;2.40;99.90;;;;;;5119170;27;19924;-63
2022/12/12 11:47:17;;;;;;;;;;;2.40;99.90;;;;;;5048256;28;19929;-63
2022/12/12 11:49:47;;;;;;;;;;;2.40;99.90;;;;;;4999361;28;19926;-63
2022/12/12 11:52:16;;;;;;;;;;;2.40;99.90;;;;;;4941083;28;19934;-63
2022/12/12 11:54:42;;;;;;;;;;;2.40;99.90;;;;;;4938329;28;19950;-64
2022/12/12 11:57:29;;;;;;;;;;;2.40;99.90;;;;;;4855581;29;20354;-63
2022/12/12 12:00:12;;;;;;;;;;;2.50;99.90;;;;;;5178543;27;19927;-64
2022/12/12 12:02:46;;;;;;;;;;;2.50;99.90;;;;;;5128518;27;19927;-64
2022/12/12 12:05:30;;;;;;;;;;;2.50;99.90;;;;;;5135757;27;19923;-64
2022/12/12 12:08:04;;;;;;;;;;;2.60;99.90;;;;;;5082841;28;19924;-64
2022/12/12 12:10:38;;;;;;;;;;;2.60;99.90;;;;;;5047468;28;19996;-63
2022/12/12 12:13:16;;;;;;;;;;;2.70;99.90;;;;;;4955220;28;19935;-64
2022/12/12 12:15:47;;;;;;;;;;;2.70;99.90;;;;;;4872671;29;20032;-64
2022/12/12 12:18:18;;;;;;;;;;;2.70;99.90;;;;;;4796951;29;20020;-64
2022/12/12 12:21:22;;;;;;;;;;;2.70;99.90;;;;;;4741564;30;19931;-64
2022/12/12 12:27:19;;;;;;;;;;;2.70;99.90;;;;;;5190183;27;19927;-64
2022/12/12 12:29:50;;;;;;;;;;;2.70;99.90;;;;;;5130163;27;19935;-64
2022/12/12 12:32:19;;;;;;;;;;;2.70;99.90;;;;;;5136253;27;19977;-64
2022/12/12 12:34:47;;;;;;;;;;;2.70;99.90;;;;;;5131363;27;19924;-63
2022/12/12 12:37:22;;;;;;;;;;;2.70;99.90;;;;;;5074829;28;20387;-64
2022/12/12 12:39:55;;;;;;;;;;;2.60;99.90;;;;;;5010830;28;19930;-64
2022/12/12 12:42:39;;;;;;;;;;;2.60;99.90;;;;;;4881830;29;20438;-64
2022/12/12 12:45:13;;;;;;;;;;;2.70;99.90;;;;;;4823996;29;19932;-63
2022/12/12 12:47:52;;;;;;;;;;;2.70;99.90;;;;;;4675246;30;20341;-64
2022/12/12 12:53:12;;;;;;;;;;;2.70;99.90;;;;;;5175649;27;20334;-64
2022/12/12 12:55:40;;;;;;;;;;;2.70;99.90;;;;;;5144645;27;19923;-64
2022/12/12 12:58:12;;;;;;;;;;;2.70;99.90;;;;;;5135956;27;21010;-64
2022/12/12 13:00:37;;;;;;;;;;;2.60;99.90;;;;;;5123231;27;20104;-64
2022/12/12 13:03:11;;;;;;;;;;;2.60;99.90;;;;;;5098606;28;20018;-64
2022/12/12 13:05:43;;;;;;;;;;;2.60;99.90;;;;;;5037984;28;19937;-64
2022/12/12 13:08:20;;;;;;;;;;;2.60;99.90;;;;;;5047863;28;19940;-64
2022/12/12 13:10:47;;;;;;;;;;;2.70;99.90;;;;;;4961861;28;20343;-64
2022/12/12 13:13:18;;;;;;;;;;;2.90;99.90;;;;;;4818018;29;19936;-64
2022/12/12 13:15:57;;;;;;;;;;;3.00;99.90;;;;;;4748706;29;19933;-64
2022/12/12 13:18:35;;;;;;;;;;;3.00;99.90;;;;;;5189869;27;19919;-63
2022/12/12 13:21:03;;;;;;;;;;;2.90;99.90;;;;;;5169414;27;20380;-64
2022/12/12 13:23:45;;;;;;;;;;;2.80;99.90;;;;;;5151788;27;20188;-64
2022/12/12 13:26:17;;;;;;;;;;;2.70;99.90;;;;;;5094095;28;19935;-64
2022/12/12 13:28:55;;;;;;;;;;;2.60;99.90;;;;;;5041191;28;20396;-64
2022/12/12 13:31:30;;;;;;;;;;;2.50;99.90;;;;;;4939256;28;19996;-64
2022/12/12 13:33:59;;;;;;;;;;;2.50;99.90;;;;;;4839147;29;20296;-64
2022/12/12 13:36:27;;;;;;;;;;;2.50;99.90;;;;;;4844561;29;20000;-64
2022/12/12 13:38:54;;;;;;;;;;;2.40;99.90;;;;;;4774653;29;19930;-64
2022/12/12 13:41:20;;;;;;;;;;;2.50;99.90;;;;;;4684166;30;19938;-64
2022/12/12 13:43:58;;;;;;;;;;;2.50;99.90;;;;;;5196222;27;20273;-64
2022/12/12 13:46:25;;;;;;;;;;;2.50;99.90;;;;;;5160575;27;19933;-64
2022/12/12 13:49:06;;;;;;;;;;;2.50;99.90;;;;;;5164254;27;19927;-64
2022/12/12 13:51:33;;;;;;;;;;;2.50;99.90;;;;;;5134369;27;19928;-64
2022/12/12 13:54:05;;;;;;;;;;;2.40;99.90;;;;;;5023794;28;19926;-64
2022/12/12 13:56:36;;;;;;;;;;;2.40;99.90;;;;;;4930713;28;20312;-64
2022/12/12 13:59:03;;;;;;;;;;;2.20;99.90;;;;;;4909667;29;20372;-64
2022/12/12 14:01:32;;;;;;;;;;;2.20;99.90;;;;;;4859696;29;20348;-64
2022/12/12 14:03:58;;;;;;;;;;;2.10;99.90;;;;;;4830016;29;19936;-64
2022/12/12 14:06:26;;;;;;;;;;;2.10;99.90;;;;;;4829019;29;19926;-64
2022/12/12 14:08:59;;;;;;;;;;;2.00;99.90;;;;;;5177667;27;20123;-64
2022/12/12 14:11:30;;;;;;;;;;;1.90;99.90;;;;;;5138767;27;20282;-64
2022/12/12 14:14:02;;;;;;;;;;;1.90;99.90;;;;;;5139316;27;19935;-64
2022/12/12 14:16:28;;;;;;;;;;;1.70;99.90;;;;;;5113136;27;20280;-64
2022/12/12 14:19:15;;;;;;;;;;;1.60;99.90;;;;;;5051589;28;19936;-64
2022/12/12 14:21:45;;;;;;;;;;;1.60;99.90;;;;;;4983851;28;19952;-64
2022/12/12 14:24:29;;;;;;;;;;;1.50;99.90;;;;;;4940897;28;19993;-64
2022/12/12 14:26:55;;;;;;;;;;;1.50;99.90;;;;;;4915284;28;19934;-64
2022/12/12 14:29:22;;;;;;;;;;;1.40;99.90;;;;;;4898589;29;20299;-64
2022/12/12 14:32:26;;;;;;;;;;;1.30;99.90;;;;;;4847323;29;19942;-64
2022/12/12 14:35:25;;;;;;;;;;;1.30;99.90;;;;;;5180624;27;20360;-64
2022/12/12 14:37:51;;;;;;;;;;;1.30;99.90;;;;;;5134917;27;19939;-64
2022/12/12 14:40:21;;;;;;;;;;;1.20;99.90;;;;;;5124264;27;20270;-64
2022/12/12 14:43:00;;;;;;;;;;;1.20;99.90;;;;;;5139332;27;20067;-64
2022/12/12 14:45:25;;;;;;;;;;;1.10;99.90;;;;;;5051504;28;19968;-64
2022/12/12 14:48:10;;;;;;;;;;;1.10;99.90;;;;;;4990065;28;20356;-64
2022/12/12 14:50:36;;;;;;;;;;;1.00;99.90;;;;;;4928655;29;19974;-64
2022/12/12 14:53:02;;;;;;;;;;;0.90;99.90;;;;;;4859421;29;19953;-64
2022/12/12 14:55:28;;;;;;;;;;;0.90;99.90;;;;;;4874505;29;21358;-63
2022/12/12 14:57:53;;;;;;;;;;;0.80;99.90;;;;;;4813226;29;19931;-64
2022/12/12 15:00:31;;;;;;;;;;;0.70;99.90;;;;;;5195294;27;19926;-64
2022/12/12 15:02:56;;;;;;;;;;;0.60;99.90;;;;;;5160868;27;19923;-64
2022/12/12 15:05:22;;;;;;;;;;;0.60;99.90;;;;;;5145339;27;20282;-64
2022/12/12 15:07:56;;;;;;;;;;;0.50;99.90;;;;;;5122798;27;19963;-64
2022/12/12 15:10:23;;;;;;;;;;;0.40;99.90;;;;;;5030577;28;19930;-64
2022/12/12 15:12:48;;;;;;;;;;;0.30;99.90;;;;;;5001155;28;20329;-64
2022/12/12 15:15:22;;;;;;;;;;;0.30;99.90;;;;;;4993249;28;20239;-64
2022/12/12 15:17:48;;;;;;;;;;;0.20;99.90;;;;;;4939858;28;19944;-63
2022/12/12 15:20:15;;;;;;;;;;;0.10;99.90;;;;;;4887288;29;19932;-63
2022/12/12 15:22:50;;;;;;;;;;;0.00;99.90;;;;;;4814889;29;19922;-63
2022/12/12 15:25:28;;;;;;;;;;;-0.10;99.90;;;;;;5208954;27;20292;-63
2022/12/12 15:27:54;;;;;;;;;;;-0.10;99.90;;;;;;5160378;27;20026;-63
2022/12/12 15:30:20;;;;;;;;;;;-0.20;99.90;;;;;;5158816;27;19924;-63
2022/12/12 15:32:47;;;;;;;;;;;-0.30;99.90;;;;;;5201956;27;19922;-63
2022/12/12 15:35:12;;;;;;;;;;;-0.30;99.90;;;;;;5104500;28;19960;-63
2022/12/12 15:37:38;;;;;;;;;;;-0.40;99.90;;;;;;5022411;28;19987;-63